Time;durP1;ratioP1;P1;durP2;ratioP2;P2;SDS_P1;SDS_P2;PMS_P1;PMS_P2;Temp;Humidity;BMP_temperature;BMP_pressure;BME280_temperature;BME280_humidity;BME280_pressure;Samples;Min_cycle;Max_cycle;Signal;HPM_P1;HPM_P2
2021/03/27 00:01:42;;;;;;;4.35;1.20;;;;;;;;;;5125057;27;20027;-70
2021/03/27 00:04:20;;;;;;;3.58;0.95;;;;;;;;;;5123930;27;20050;-70
2021/03/27 00:06:46;;;;;;;5.30;1.63;;;;;;;;;;5118572;27;20035;-70
2021/03/27 00:09:35;;;;;;;2.85;1.20;;;;;;;;;;5125044;27;20208;-70
2021/03/27 00:12:11;;;;;;;7.20;1.38;;;;;;;;;;5131552;27;20042;-70
2021/03/27 00:14:41;;;;;;;4.40;1.30;;;;;;;;;;5128652;27;20042;-70
2021/03/27 00:17:32;;;;;;;4.78;1.10;;;;;;;;;;5121924;27;20122;-70
2021/03/27 00:20:01;;;;;;;6.22;1.60;;;;;;;;;;5121946;27;20051;-69
2021/03/27 00:22:41;;;;;;;4.13;1.00;;;;;;;;;;5128364;27;20047;-70
2021/03/27 00:25:11;;;;;;;3.50;1.15;;;;;;;;;;5121096;27;20182;-70
2021/03/27 00:27:45;;;;;;;2.13;1.00;;;;;;;;;;5124513;27;20059;-70
2021/03/27 00:30:15;;;;;;;4.80;1.88;;;;;;;;;;5129888;27;20058;-69
2021/03/27 00:32:49;;;;;;;4.05;1.70;;;;;;;;;;5127853;27;20482;-69
2021/03/27 00:35:22;;;;;;;5.63;1.80;;;;;;;;;;5129127;27;20062;-70
2021/03/27 00:37:50;;;;;;;6.95;1.60;;;;;;;;;;5131251;27;20093;-70
2021/03/27 00:40:24;;;;;;;5.78;1.45;;;;;;;;;;5132624;27;20045;-70
2021/03/27 00:42:52;;;;;;;7.03;1.45;;;;;;;;;;5129429;27;20493;-69
2021/03/27 00:45:24;;;;;;;4.65;1.52;;;;;;;;;;5123665;27;20043;-70
2021/03/27 00:47:55;;;;;;;6.53;1.60;;;;;;;;;;5126768;27;20043;-70
2021/03/27 00:50:33;;;;;;;5.65;1.27;;;;;;;;;;5126259;27;20039;-70
2021/03/27 00:53:01;;;;;;;4.82;1.38;;;;;;;;;;5117113;27;20379;-70
2021/03/27 00:55:40;;;;;;;6.90;2.05;;;;;;;;;;5116561;27;20091;-70
2021/03/27 00:58:12;;;;;;;2.75;1.40;;;;;;;;;;5122599;27;20039;-70
2021/03/27 01:00:46;;;;;;;3.95;1.88;;;;;;;;;;5125576;27;20047;-70
2021/03/27 01:03:20;;;;;;;6.03;1.48;;;;;;;;;;5129916;27;20039;-70
2021/03/27 01:05:47;;;;;;;2.25;1.20;;;;;;;;;;5129728;27;20043;-69
2021/03/27 01:08:14;;;;;;;8.30;1.40;;;;;;;;;;5128705;27;20046;-70
2021/03/27 01:10:44;;;;;;;2.20;1.20;;;;;;;;;;5132497;27;20059;-69
2021/03/27 01:13:13;;;;;;;5.13;1.30;;;;;;;;;;5131087;27;20071;-69
2021/03/27 01:15:48;;;;;;;5.57;1.50;;;;;;;;;;5130341;27;20043;-69
2021/03/27 01:18:23;;;;;;;4.55;1.20;;;;;;;;;;5129552;27;20117;-70
2021/03/27 01:20:52;;;;;;;6.50;1.30;;;;;;;;;;5123306;27;20046;-69
2021/03/27 01:23:18;;;;;;;7.22;1.40;;;;;;;;;;5119253;27;20071;-69
2021/03/27 01:25:45;;;;;;;3.80;1.20;;;;;;;;;;5120728;27;20039;-69
2021/03/27 01:28:26;;;;;;;8.30;1.50;;;;;;;;;;5120752;27;20777;-69
2021/03/27 01:31:07;;;;;;;3.55;1.27;;;;;;;;;;5125120;27;20039;-69
2021/03/27 01:33:57;;;;;;;7.53;1.30;;;;;;;;;;5128346;27;20398;-70
2021/03/27 01:36:27;;;;;;;3.70;1.15;;;;;;;;;;5117662;27;20107;-70
2021/03/27 01:38:53;;;;;;;1.80;1.10;;;;;;;;;;5123469;27;20462;-69
2021/03/27 01:41:26;;;;;;;6.35;1.50;;;;;;;;;;5129882;27;20358;-69
2021/03/27 01:43:59;;;;;;;5.60;1.25;;;;;;;;;;5128153;27;20039;-70
2021/03/27 01:46:34;;;;;;;8.00;1.77;;;;;;;;;;5127718;27;20046;-69
2021/03/27 01:49:04;;;;;;;4.05;1.23;;;;;;;;;;5123862;27;20043;-70
2021/03/27 01:51:40;;;;;;;9.13;1.60;;;;;;;;;;5123431;27;20031;-69
2021/03/27 01:54:08;;;;;;;6.50;1.27;;;;;;;;;;5115423;27;20469;-69
2021/03/27 01:56:47;;;;;;;10.48;1.67;;;;;;;;;;5119182;27;20055;-70
2021/03/27 01:59:29;;;;;;;5.43;1.25;;;;;;;;;;5121079;27;20031;-70
2021/03/27 02:01:58;;;;;;;5.57;1.70;;;;;;;;;;5118638;27;20050;-69
2021/03/27 02:04:30;;;;;;;8.13;1.98;;;;;;;;;;5127454;27;20494;-70
2021/03/27 02:06:58;;;;;;;2.95;1.52;;;;;;;;;;5128039;27;20035;-70
2021/03/27 02:09:44;;;;;;;6.18;1.88;;;;;;;;;;5124038;27;20035;-69
2021/03/27 02:12:27;;;;;;;4.38;1.95;;;;;;;;;;5122291;27;20055;-70
2021/03/27 02:14:56;;;;;;;7.13;1.80;;;;;;;;;;5126861;27;20043;-70
2021/03/27 02:17:36;;;;;;;7.57;1.90;;;;;;;;;;5122461;27;20138;-69
2021/03/27 02:20:20;;;;;;;4.45;2.10;;;;;;;;;;5122372;27;20061;-70
2021/03/27 02:22:47;;;;;;;4.63;1.90;;;;;;;;;;5121385;27;20069;-70
2021/03/27 02:25:19;;;;;;;5.82;1.75;;;;;;;;;;5137313;27;20485;-70
2021/03/27 02:28:05;;;;;;;5.18;2.40;;;;;;;;;;5122503;27;20100;-70
2021/03/27 02:30:46;;;;;;;9.70;2.90;;;;;;;;;;5124782;27;20130;-69
2021/03/27 02:33:31;;;;;;;7.95;3.00;;;;;;;;;;5122257;27;20044;-69
2021/03/27 02:36:06;;;;;;;6.50;2.90;;;;;;;;;;5120585;27;20046;-69
2021/03/27 02:38:44;;;;;;;7.93;3.35;;;;;;;;;;5127115;27;20048;-69
2021/03/27 02:41:11;;;;;;;7.20;3.40;;;;;;;;;;5126157;27;20046;-70
2021/03/27 02:43:40;;;;;;;9.07;4.30;;;;;;;;;;5126447;27;20050;-70
2021/03/27 02:46:14;;;;;;;9.45;4.32;;;;;;;;;;5122553;27;20042;-70
2021/03/27 02:48:52;;;;;;;9.95;4.88;;;;;;;;;;5122850;27;20039;-69
2021/03/27 02:51:24;;;;;;;10.15;5.07;;;;;;;;;;5131119;27;20315;-70
2021/03/27 02:53:58;;;;;;;15.20;6.38;;;;;;;;;;5127494;27;20070;-70
2021/03/27 02:56:24;;;;;;;17.80;6.82;;;;;;;;;;5132199;27;20035;-70
2021/03/27 02:59:09;;;;;;;14.23;7.03;;;;;;;;;;5129235;27;20062;-70
2021/03/27 03:01:40;;;;;;;15.50;8.02;;;;;;;;;;5127483;27;20036;-70
2021/03/27 03:04:11;;;;;;;13.93;7.38;;;;;;;;;;5133025;27;20039;-69
2021/03/27 03:06:52;;;;;;;16.02;7.65;;;;;;;;;;5131489;27;20554;-70
2021/03/27 03:09:37;;;;;;;13.93;7.95;;;;;;;;;;5132076;27;20125;-70
2021/03/27 03:12:29;;;;;;;12.27;8.02;;;;;;;;;;5123985;27;20088;-70
2021/03/27 03:15:14;;;;;;;20.38;9.13;;;;;;;;;;5093067;27;20043;-70
2021/03/27 03:17:46;;;;;;;15.98;9.18;;;;;;;;;;5132535;27;20475;-70
2021/03/27 03:20:31;;;;;;;18.83;8.60;;;;;;;;;;5129866;27;20115;-70
2021/03/27 03:23:16;;;;;;;20.92;8.32;;;;;;;;;;5122923;27;20119;-70
2021/03/27 03:25:50;;;;;;;18.27;8.93;;;;;;;;;;5123163;27;20083;-70
2021/03/27 03:28:23;;;;;;;15.07;9.32;;;;;;;;;;5131609;27;20255;-70
2021/03/27 03:30:53;;;;;;;20.00;9.32;;;;;;;;;;5131091;27;20051;-70
2021/03/27 03:33:39;;;;;;;18.25;9.05;;;;;;;;;;5130538;27;20490;-70
2021/03/27 03:36:07;;;;;;;18.45;9.70;;;;;;;;;;5130854;27;20442;-70
2021/03/27 03:38:39;;;;;;;24.98;9.25;;;;;;;;;;5125907;27;20470;-70
2021/03/27 03:41:08;;;;;;;22.23;8.68;;;;;;;;;;5127861;27;20046;-71
2021/03/27 03:43:37;;;;;;;18.40;9.07;;;;;;;;;;5129279;27;20370;-70
2021/03/27 03:46:03;;;;;;;19.25;7.20;;;;;;;;;;5124755;27;20039;-70
2021/03/27 03:48:30;;;;;;;17.55;7.72;;;;;;;;;;5128215;27;20039;-70
2021/03/27 03:51:06;;;;;;;18.50;6.93;;;;;;;;;;5122454;27;20502;-71
2021/03/27 03:53:42;;;;;;;17.35;7.68;;;;;;;;;;5122285;27;20121;-70
2021/03/27 03:56:16;;;;;;;19.35;6.50;;;;;;;;;;5117704;27;20046;-70
2021/03/27 03:58:42;;;;;;;20.33;6.55;;;;;;;;;;5130039;27;20521;-71
2021/03/27 04:01:19;;;;;;;21.60;6.40;;;;;;;;;;5125759;27;20039;-71
2021/03/27 04:03:52;;;;;;;19.08;5.55;;;;;;;;;;5129279;27;20137;-70
2021/03/27 04:06:25;;;;;;;15.77;5.38;;;;;;;;;;5128716;27;20043;-70
2021/03/27 04:08:54;;;;;;;18.67;5.20;;;;;;;;;;5129886;27;20046;-70
2021/03/27 04:11:39;;;;;;;15.57;4.38;;;;;;;;;;5130653;27;20306;-71
2021/03/27 04:14:08;;;;;;;21.60;4.13;;;;;;;;;;5128887;27;20466;-71
2021/03/27 04:16:38;;;;;;;22.05;4.35;;;;;;;;;;5127738;27;20087;-71
2021/03/27 04:19:11;;;;;;;13.43;3.83;;;;;;;;;;5127240;27;20118;-70
2021/03/27 04:21:56;;;;;;;16.92;3.63;;;;;;;;;;5125928;27;20709;-70
2021/03/27 04:24:28;;;;;;;17.63;3.85;;;;;;;;;;5118540;27;20090;-70
2021/03/27 04:27:00;;;;;;;15.23;3.65;;;;;;;;;;5125761;27;20047;-70
2021/03/27 04:29:41;;;;;;;28.15;4.65;;;;;;;;;;5130805;27;20051;-70
2021/03/27 04:32:10;;;;;;;19.40;4.57;;;;;;;;;;5130128;27;20442;-70
2021/03/27 04:34:56;;;;;;;21.33;4.05;;;;;;;;;;5128943;27;20070;-70
2021/03/27 04:37:27;;;;;;;16.40;3.72;;;;;;;;;;5127128;27;20039;-70
2021/03/27 04:39:57;;;;;;;33.63;4.53;;;;;;;;;;5132627;27;20043;-70
2021/03/27 04:42:26;;;;;;;18.15;3.70;;;;;;;;;;5128344;27;20054;-70
2021/03/27 04:45:03;;;;;;;13.05;3.22;;;;;;;;;;5123022;27;20065;-70
2021/03/27 04:47:35;;;;;;;17.60;3.67;;;;;;;;;;5134335;27;20040;-70
2021/03/27 04:50:40;;;;;;;19.98;4.28;;;;;;;;;;5131035;27;20126;-70
2021/03/27 04:53:09;;;;;;;17.38;3.40;;;;;;;;;;5041570;28;20128;-70
2021/03/27 04:55:39;;;;;;;14.07;3.85;;;;;;;;;;5042637;28;20053;-70
2021/03/27 04:58:11;;;;;;;17.35;3.38;;;;;;;;;;5088985;27;20090;-70
2021/03/27 05:00:43;;;;;;;19.75;3.60;;;;;;;;;;5123528;27;20039;-70
2021/03/27 05:03:16;;;;;;;17.75;3.72;;;;;;;;;;5124145;27;20162;-70
2021/03/27 05:05:55;;;;;;;14.27;3.08;;;;;;;;;;5131308;27;20208;-70
2021/03/27 05:08:39;;;;;;;16.27;3.05;;;;;;;;;;5125873;27;20454;-70
2021/03/27 05:11:17;;;;;;;14.85;3.42;;;;;;;;;;5128846;27;20050;-70
2021/03/27 05:13:54;;;;;;;19.42;3.20;;;;;;;;;;5147776;27;20222;-70
2021/03/27 05:16:23;;;;;;;19.15;3.38;;;;;;;;;;5123329;27;20047;-70
2021/03/27 05:18:50;;;;;;;16.30;2.97;;;;;;;;;;5129395;27;20411;-70
2021/03/27 05:21:34;;;;;;;21.05;5.20;;;;;;;;;;5126872;27;20066;-70
2021/03/27 05:24:03;;;;;;;12.32;2.75;;;;;;;;;;5115670;27;20719;-70
2021/03/27 05:26:32;;;;;;;23.92;3.10;;;;;;;;;;5112998;27;20039;-69
2021/03/27 05:29:04;;;;;;;16.40;2.55;;;;;;;;;;5124821;27;20039;-69
2021/03/27 05:31:38;;;;;;;16.45;3.10;;;;;;;;;;5130293;27;20374;-69
2021/03/27 05:34:23;;;;;;;14.75;3.13;;;;;;;;;;5127634;27;20126;-70
2021/03/27 05:37:08;;;;;;;12.18;3.15;;;;;;;;;;5125793;27;20058;-70
2021/03/27 05:39:34;;;;;;;19.55;3.97;;;;;;;;;;5119045;27;20731;-70
2021/03/27 05:42:03;;;;;;;22.25;3.63;;;;;;;;;;5126171;27;20096;-70
2021/03/27 05:44:30;;;;;;;18.60;3.47;;;;;;;;;;5129602;27;20041;-70
2021/03/27 05:46:56;;;;;;;14.02;3.15;;;;;;;;;;5129393;27;20047;-69
2021/03/27 05:49:39;;;;;;;13.75;3.05;;;;;;;;;;5118220;27;20038;-69
2021/03/27 05:52:24;;;;;;;14.40;3.25;;;;;;;;;;5124681;27;20039;-70
2021/03/27 05:54:53;;;;;;;13.45;2.80;;;;;;;;;;5117926;27;21275;-70
2021/03/27 05:57:19;;;;;;;22.15;3.42;;;;;;;;;;5121486;27;20398;-70
2021/03/27 05:59:48;;;;;;;15.52;4.13;;;;;;;;;;5124685;27;20031;-70
2021/03/27 06:02:33;;;;;;;10.23;3.50;;;;;;;;;;5124943;27;20043;-70
2021/03/27 06:05:15;;;;;;;10.68;3.17;;;;;;;;;;5152458;27;20084;-70
2021/03/27 06:07:44;;;;;;;9.70;2.60;;;;;;;;;;5127542;27;20039;-70
2021/03/27 06:10:25;;;;;;;10.50;2.58;;;;;;;;;;5128239;27;20087;-70
2021/03/27 06:13:04;;;;;;;10.65;3.15;;;;;;;;;;5121942;27;20044;-70
2021/03/27 06:15:33;;;;;;;4.47;2.13;;;;;;;;;;5118227;27;20046;-70
2021/03/27 06:18:17;;;;;;;10.05;2.67;;;;;;;;;;5116248;27;20092;-70
2021/03/27 06:21:03;;;;;;;8.70;2.35;;;;;;;;;;5126219;27;20476;-71
2021/03/27 06:23:49;;;;;;;8.02;3.08;;;;;;;;;;5116365;27;20096;-70
2021/03/27 06:26:33;;;;;;;11.48;3.00;;;;;;;;;;5135855;27;20046;-70
2021/03/27 06:29:25;;;;;;;13.38;2.97;;;;;;;;;;5128331;27;20051;-70
2021/03/27 06:32:06;;;;;;;12.30;2.90;;;;;;;;;;5129234;27;20134;-70
2021/03/27 06:34:51;;;;;;;12.98;3.28;;;;;;;;;;5130004;27;20131;-70
2021/03/27 06:37:26;;;;;;;9.70;2.55;;;;;;;;;;5118451;27;20057;-71
2021/03/27 06:40:25;;;;;;;12.60;2.83;;;;;;;;;;5138909;27;20043;-72
2021/03/27 06:43:09;;;;;;;11.55;3.70;;;;;;;;;;5085697;28;20039;-71
2021/03/27 06:45:54;;;;;;;14.43;3.40;;;;;;;;;;5117106;27;20047;-71
2021/03/27 06:48:40;;;;;;;11.77;2.95;;;;;;;;;;5136401;27;20055;-71
2021/03/27 06:51:30;;;;;;;13.32;3.72;;;;;;;;;;5129038;27;20046;-71
2021/03/27 06:54:15;;;;;;;18.55;4.43;;;;;;;;;;5123773;27;20543;-71
2021/03/27 06:57:00;;;;;;;14.95;3.72;;;;;;;;;;5129667;27;20099;-70
2021/03/27 06:59:26;;;;;;;15.98;3.83;;;;;;;;;;5128404;27;20054;-71
2021/03/27 07:01:52;;;;;;;17.15;3.90;;;;;;;;;;5143588;27;20485;-72
2021/03/27 07:04:37;;;;;;;15.23;3.47;;;;;;;;;;5142172;27;20066;-72
2021/03/27 07:07:22;;;;;;;17.50;4.47;;;;;;;;;;5131448;27;20089;-71
2021/03/27 07:09:48;;;;;;;17.42;3.95;;;;;;;;;;5140303;27;20043;-71
2021/03/27 07:12:43;;;;;;;20.65;3.15;;;;;;;;;;5145803;27;20043;-71
2021/03/27 07:15:16;;;;;;;17.13;3.45;;;;;;;;;;5114329;28;20385;-72
2021/03/27 07:17:42;;;;;;;13.57;3.10;;;;;;;;;;5140275;27;20512;-71
2021/03/27 07:20:18;;;;;;;21.70;2.90;;;;;;;;;;5141173;27;20047;-72
2021/03/27 07:23:03;;;;;;;20.20;3.45;;;;;;;;;;5143792;27;20047;-72
2021/03/27 07:25:29;;;;;;;18.50;3.08;;;;;;;;;;5147205;27;20043;-72
2021/03/27 07:27:56;;;;;;;24.45;3.92;;;;;;;;;;5146279;27;20461;-72
2021/03/27 07:30:33;;;;;;;22.02;3.05;;;;;;;;;;5132390;27;20050;-71
2021/03/27 07:33:09;;;;;;;25.42;3.40;;;;;;;;;;5130140;27;20093;-71
2021/03/27 07:35:41;;;;;;;21.42;3.35;;;;;;;;;;5144872;27;20035;-71
2021/03/27 07:38:26;;;;;;;19.02;4.07;;;;;;;;;;5140378;27;20066;-71
2021/03/27 07:41:01;;;;;;;22.60;3.17;;;;;;;;;;5141484;27;20479;-72
2021/03/27 07:43:27;;;;;;;19.95;3.80;;;;;;;;;;5135773;27;20035;-72
2021/03/27 07:45:53;;;;;;;23.00;4.28;;;;;;;;;;5143907;27;20043;-71
2021/03/27 07:48:19;;;;;;;24.38;4.22;;;;;;;;;;5154059;27;20035;-71
2021/03/27 07:50:57;;;;;;;12.70;2.90;;;;;;;;;;5150804;27;20038;-72
2021/03/27 07:53:41;;;;;;;20.70;3.67;;;;;;;;;;5149725;27;20038;-70
2021/03/27 07:56:20;;;;;;;29.88;4.20;;;;;;;;;;5130323;27;20051;-72
2021/03/27 07:58:49;;;;;;;21.40;3.40;;;;;;;;;;5132560;27;20087;-71
2021/03/27 08:01:33;;;;;;;18.13;4.03;;;;;;;;;;5133271;27;20126;-71
2021/03/27 08:04:08;;;;;;;21.45;3.85;;;;;;;;;;5132384;27;20155;-70
2021/03/27 08:06:46;;;;;;;21.45;3.47;;;;;;;;;;5130363;27;20148;-71
2021/03/27 08:09:15;;;;;;;19.25;3.15;;;;;;;;;;5129282;27;20050;-71
2021/03/27 08:12:00;;;;;;;17.60;3.38;;;;;;;;;;5130056;27;20031;-71
2021/03/27 08:14:41;;;;;;;18.40;4.28;;;;;;;;;;5125665;27;20501;-72
2021/03/27 08:17:16;;;;;;;17.65;3.55;;;;;;;;;;5132785;27;20032;-73
2021/03/27 08:20:08;;;;;;;19.95;3.13;;;;;;;;;;5125563;27;20534;-72
2021/03/27 08:22:47;;;;;;;21.13;4.03;;;;;;;;;;5128430;27;20031;-72
2021/03/27 08:25:32;;;;;;;13.57;2.88;;;;;;;;;;5131289;27;20047;-73
2021/03/27 08:28:16;;;;;;;17.65;3.35;;;;;;;;;;5129104;27;20122;-72
2021/03/27 08:30:43;;;;;;;17.45;3.63;;;;;;;;;;5124580;27;20482;-72
2021/03/27 08:33:28;;;;;;;14.38;3.53;;;;;;;;;;5131448;27;20107;-72
2021/03/27 08:36:09;;;;;;;10.77;2.30;;;;;;;;;;5154796;27;20122;-73
2021/03/27 08:38:35;;;;;;;10.63;2.10;;;;;;;;;;5132305;27;20114;-72
2021/03/27 08:41:10;;;;;;;14.02;2.38;;;;;;;;;;5140775;27;20043;-72
2021/03/27 08:43:36;;;;;;;15.88;2.88;;;;;;;;;;5132631;27;20483;-72
2021/03/27 08:46:02;;;;;;;13.60;2.63;;;;;;;;;;5129102;27;20095;-72
2021/03/27 08:48:33;;;;;;;12.90;2.22;;;;;;;;;;5128052;27;20107;-72
2021/03/27 08:51:06;;;;;;;13.07;2.40;;;;;;;;;;5107975;27;20051;-72
2021/03/27 08:53:35;;;;;;;17.75;2.50;;;;;;;;;;5133356;27;20070;-73
2021/03/27 08:56:11;;;;;;;14.60;2.47;;;;;;;;;;5122579;27;20047;-73
2021/03/27 08:58:40;;;;;;;15.88;2.90;;;;;;;;;;5152273;27;20428;-73
2021/03/27 09:01:14;;;;;;;13.57;3.15;;;;;;;;;;5128575;27;20106;-73
2021/03/27 09:03:59;;;;;;;13.13;2.92;;;;;;;;;;5132502;27;20060;-72
2021/03/27 09:06:44;;;;;;;15.38;3.45;;;;;;;;;;5128118;27;20514;-72
2021/03/27 09:09:18;;;;;;;16.10;3.05;;;;;;;;;;5125576;27;20043;-71
2021/03/27 09:11:44;;;;;;;;;;;;;;;;;;5129618;27;20035;-72
2021/03/27 09:14:30;;;;;;;12.30;2.75;;;;;;;;;;5153357;27;19944;-70
2021/03/27 09:17:14;;;;;;;8.77;2.50;;;;;;;;;;5121697;27;20035;-70
2021/03/27 09:19:52;;;;;;;14.52;2.75;;;;;;;;;;5119120;27;20040;-71
2021/03/27 09:22:34;;;;;;;16.92;2.85;;;;;;;;;;5129957;27;20039;-71
2021/03/27 09:25:00;;;;;;;15.32;3.05;;;;;;;;;;5156851;27;20201;-70
2021/03/27 09:27:44;;;;;;;14.10;2.90;;;;;;;;;;5125391;27;20059;-69
2021/03/27 09:30:11;;;;;;;13.02;3.40;;;;;;;;;;5131974;27;20118;-70
2021/03/27 09:32:40;;;;;;;12.93;2.83;;;;;;;;;;5127439;27;20047;-71
2021/03/27 09:35:20;;;;;;;14.07;2.92;;;;;;;;;;5130031;27;20046;-70
2021/03/27 09:38:06;;;;;;;11.15;2.63;;;;;;;;;;5124626;27;20118;-70
2021/03/27 09:40:51;;;;;;;24.25;3.30;;;;;;;;;;5139454;27;20055;-71
2021/03/27 09:43:17;;;;;;;14.73;3.78;;;;;;;;;;5121344;27;20050;-72
2021/03/27 09:46:05;;;;;;;13.55;3.15;;;;;;;;;;5123325;27;20046;-70
2021/03/27 09:48:57;;;;;;;13.05;2.70;;;;;;;;;;5125683;27;20047;-72
2021/03/27 09:51:27;;;;;;;18.58;2.97;;;;;;;;;;5125625;27;20037;-71
2021/03/27 09:53:56;;;;;;;11.38;2.78;;;;;;;;;;5124167;27;20066;-72
2021/03/27 09:56:48;;;;;;;14.73;3.20;;;;;;;;;;5122553;27;20100;-72
2021/03/27 09:59:26;;;;;;;18.45;3.05;;;;;;;;;;5116914;27;20375;-72
2021/03/27 10:01:54;;;;;;;19.10;3.13;;;;;;;;;;5126980;27;20406;-71
2021/03/27 10:04:22;;;;;;;17.67;3.50;;;;;;;;;;5126432;27;20057;-71
2021/03/27 10:06:59;;;;;;;9.50;2.50;;;;;;;;;;5122788;27;20089;-71
2021/03/27 10:09:48;;;;;;;11.57;2.00;;;;;;;;;;5124242;27;20067;-72
2021/03/27 10:12:22;;;;;;;17.95;2.60;;;;;;;;;;5123837;27;20039;-71
2021/03/27 10:14:51;;;;;;;16.08;2.75;;;;;;;;;;5126215;27;20050;-71
2021/03/27 10:17:17;;;;;;;17.85;3.38;;;;;;;;;;5123491;27;20164;-74
2021/03/27 10:20:01;;;;;;;17.95;3.15;;;;;;;;;;5127622;27;20046;-73
2021/03/27 10:22:42;;;;;;;15.23;2.78;;;;;;;;;;5125443;27;20031;-72
2021/03/27 10:25:14;;;;;;;20.33;2.97;;;;;;;;;;5125141;27;20361;-73
2021/03/27 10:27:48;;;;;;;18.45;3.20;;;;;;;;;;5122536;27;20092;-72
2021/03/27 10:30:29;;;;;;;17.45;2.42;;;;;;;;;;5126309;28;20043;-73
2021/03/27 10:33:00;;;;;;;14.10;2.70;;;;;;;;;;5126975;28;20051;-73
2021/03/27 10:35:33;;;;;;;15.23;3.28;;;;;;;;;;5126770;28;20046;-73
2021/03/27 10:38:08;;;;;;;15.10;2.80;;;;;;;;;;5130545;28;20115;-72
2021/03/27 10:40:34;;;;;;;18.15;3.42;;;;;;;;;;5125134;28;20050;-72
2021/03/27 10:43:00;;;;;;;10.48;2.50;;;;;;;;;;5127412;28;20059;-72
2021/03/27 10:45:33;;;;;;;14.52;3.08;;;;;;;;;;5130132;28;20043;-71
2021/03/27 10:48:05;;;;;;;12.80;2.80;;;;;;;;;;5124785;28;20067;-72
2021/03/27 10:50:49;;;;;;;14.43;2.85;;;;;;;;;;5126361;28;20042;-72
2021/03/27 10:53:19;;;;;;;25.95;3.30;;;;;;;;;;5127678;28;20043;-73
2021/03/27 10:55:45;;;;;;;14.88;3.35;;;;;;;;;;5126965;28;20394;-72
2021/03/27 10:58:32;;;;;;;12.70;2.50;;;;;;;;;;5127046;28;20061;-73
2021/03/27 11:01:04;;;;;;;21.48;2.78;;;;;;;;;;5130367;28;20100;-71
2021/03/27 11:03:30;;;;;;;18.38;2.90;;;;;;;;;;5130390;28;20039;-72
2021/03/27 11:06:15;;;;;;;13.90;2.60;;;;;;;;;;5131438;28;20035;-71
2021/03/27 11:09:00;;;;;;;22.70;3.13;;;;;;;;;;5131243;27;20088;-73
2021/03/27 11:11:45;;;;;;;22.92;3.10;;;;;;;;;;5149962;27;20046;-72
2021/03/27 11:14:39;;;;;;;14.80;2.80;;;;;;;;;;5126137;27;20302;-72
2021/03/27 11:17:24;;;;;;;17.35;3.80;;;;;;;;;;5133510;27;20054;-70
2021/03/27 11:19:50;;;;;;;20.35;3.08;;;;;;;;;;5135813;27;20058;-72
2021/03/27 11:22:16;;;;;;;17.75;3.20;;;;;;;;;;5134811;27;20099;-71
2021/03/27 11:24:42;;;;;;;19.95;2.58;;;;;;;;;;5135719;27;20506;-72
2021/03/27 11:27:11;;;;;;;18.55;2.70;;;;;;;;;;5134485;27;20039;-70
2021/03/27 11:29:40;;;;;;;15.90;2.63;;;;;;;;;;5136508;27;20031;-70
2021/03/27 11:32:24;;;;;;;18.60;2.72;;;;;;;;;;5133238;27;20172;-71
2021/03/27 11:35:09;;;;;;;13.77;3.40;;;;;;;;;;5131486;27;20147;-70
2021/03/27 11:37:38;;;;;;;15.18;3.60;;;;;;;;;;5130547;27;20091;-69
2021/03/27 11:40:05;;;;;;;8.55;2.17;;;;;;;;;;5132631;27;20043;-71
2021/03/27 11:42:42;;;;;;;13.48;2.28;;;;;;;;;;5133254;27;20160;-70
2021/03/27 11:45:12;;;;;;;11.38;2.03;;;;;;;;;;5131069;27;20138;-71
2021/03/27 11:47:38;;;;;;;9.95;1.92;;;;;;;;;;5135942;27;20036;-71
2021/03/27 11:50:08;;;;;;;2.97;0.90;;;;;;;;;;5128215;27;20049;-70
2021/03/27 11:52:37;;;;;;;3.10;0.60;;;;;;;;;;5133833;27;20060;-71
2021/03/27 11:55:19;;;;;;;4.38;0.93;;;;;;;;;;5132810;27;20039;-70
2021/03/27 11:57:51;;;;;;;4.28;0.80;;;;;;;;;;5134529;27;20035;-70
2021/03/27 12:00:48;;;;;;;8.27;1.33;;;;;;;;;;5130957;27;20312;-71
2021/03/27 12:03:20;;;;;;;7.50;1.00;;;;;;;;;;5133498;27;20043;-71
2021/03/27 12:05:46;;;;;;;9.90;1.42;;;;;;;;;;5130646;27;20039;-70
2021/03/27 12:08:12;;;;;;;8.32;1.20;;;;;;;;;;5136528;27;20168;-70
2021/03/27 12:11:11;;;;;;;9.13;1.90;;;;;;;;;;5134119;27;20039;-70
2021/03/27 12:13:46;;;;;;;7.00;1.60;;;;;;;;;;5106382;27;20043;-70
2021/03/27 12:16:12;;;;;;;8.43;1.60;;;;;;;;;;5134522;27;20123;-70
2021/03/27 12:18:47;;;;;;;8.20;1.63;;;;;;;;;;5134138;27;20038;-70
2021/03/27 12:21:24;;;;;;;10.55;2.17;;;;;;;;;;5131998;27;20112;-70
2021/03/27 12:23:58;;;;;;;12.77;2.50;;;;;;;;;;5134270;27;20394;-71
2021/03/27 12:26:24;;;;;;;;;;;;;;;;;;5133890;27;20462;-72
2021/03/27 12:29:07;;;;;;;19.73;2.75;;;;;;;;;;5131746;27;20014;-72
2021/03/27 12:31:52;;;;;;;13.02;2.58;;;;;;;;;;5127940;27;20035;-71
2021/03/27 12:34:29;;;;;;;13.27;2.58;;;;;;;;;;5127959;27;20398;-70
2021/03/27 12:37:07;;;;;;;19.42;2.88;;;;;;;;;;5131290;27;20050;-72
2021/03/27 12:39:41;;;;;;;14.68;3.05;;;;;;;;;;5128879;27;20039;-71
2021/03/27 12:42:10;;;;;;;21.42;3.58;;;;;;;;;;5131414;27;20088;-71
2021/03/27 12:44:43;;;;;;;19.48;3.72;;;;;;;;;;5129205;27;20038;-70
2021/03/27 12:47:25;;;;;;;18.20;3.15;;;;;;;;;;5127202;27;20036;-70
2021/03/27 12:50:07;;;;;;;23.73;3.83;;;;;;;;;;5132095;27;20092;-72
2021/03/27 12:52:45;;;;;;;20.30;3.30;;;;;;;;;;5133361;27;20039;-72
2021/03/27 12:55:11;;;;;;;17.77;3.75;;;;;;;;;;5131332;27;20046;-73
2021/03/27 12:57:51;;;;;;;20.58;3.50;;;;;;;;;;5133566;27;20031;-72
2021/03/27 13:00:35;;;;;;;16.88;4.65;;;;;;;;;;5133049;27;20054;-72
2021/03/27 13:03:29;;;;;;;19.92;3.63;;;;;;;;;;5129830;27;20035;-72
2021/03/27 13:06:13;;;;;;;21.40;3.22;;;;;;;;;;5130565;27;20054;-72
2021/03/27 13:08:41;;;;;;;17.02;3.65;;;;;;;;;;5131238;27;20474;-72
2021/03/27 13:11:19;;;;;;;19.08;3.65;;;;;;;;;;5130318;27;20050;-70
2021/03/27 13:14:04;;;;;;;14.50;3.30;;;;;;;;;;5125946;27;20050;-71
2021/03/27 13:16:37;;;;;;;18.83;3.20;;;;;;;;;;5131212;27;20478;-71
2021/03/27 13:19:04;;;;;;;14.70;3.08;;;;;;;;;;5130291;27;20087;-72
2021/03/27 13:21:59;;;;;;;20.15;4.32;;;;;;;;;;5131627;27;20368;-73
2021/03/27 13:24:35;;;;;;;12.10;3.28;;;;;;;;;;5118789;27;20055;-73
2021/03/27 13:27:11;;;;;;;18.23;3.47;;;;;;;;;;5127904;27;20493;-73
2021/03/27 13:29:42;;;;;;;14.38;2.55;;;;;;;;;;5129268;27;20039;-71
2021/03/27 13:32:18;;;;;;;18.58;3.50;;;;;;;;;;5128635;27;20066;-72
2021/03/27 13:34:52;;;;;;;13.50;3.40;;;;;;;;;;5126759;27;20043;-72
2021/03/27 13:37:27;;;;;;;13.60;2.47;;;;;;;;;;5128341;27;20111;-76
2021/03/27 13:39:58;;;;;;;12.55;2.78;;;;;;;;;;5128883;27;20050;-71
2021/03/27 13:42:30;;;;;;;5.70;1.40;;;;;;;;;;5133029;27;20042;-69
2021/03/27 13:45:09;;;;;;;5.93;1.30;;;;;;;;;;5129154;27;20152;-70
2021/03/27 13:47:38;;;;;;;6.82;1.23;;;;;;;;;;5124030;27;20539;-72
2021/03/27 13:50:13;;;;;;;7.80;1.45;;;;;;;;;;5130542;27;20047;-72
2021/03/27 13:52:58;;;;;;;5.75;1.05;;;;;;;;;;5129150;27;20069;-73
2021/03/27 13:55:34;;;;;;;4.88;0.90;;;;;;;;;;5131506;27;20043;-72
2021/03/27 13:58:19;;;;;;;12.82;2.15;;;;;;;;;;5128957;27;20543;-72
2021/03/27 14:00:51;;;;;;;9.45;1.77;;;;;;;;;;5128671;27;20117;-71
2021/03/27 14:03:27;;;;;;;8.23;2.22;;;;;;;;;;5128576;27;20104;-72
2021/03/27 14:06:16;;;;;;;16.98;3.08;;;;;;;;;;5124831;27;20031;-74
2021/03/27 14:08:42;;;;;;;12.38;2.75;;;;;;;;;;5130110;27;20500;-71
2021/03/27 14:11:11;;;;;;;15.75;3.33;;;;;;;;;;5130912;27;20042;-72
2021/03/27 14:13:42;;;;;;;22.90;3.70;;;;;;;;;;5130380;27;20042;-72
2021/03/27 14:16:13;;;;;;;16.27;3.47;;;;;;;;;;5114299;27;20058;-71
2021/03/27 14:18:39;;;;;;;17.30;4.00;;;;;;;;;;5126570;27;20097;-71
2021/03/27 14:21:18;;;;;;;14.95;3.20;;;;;;;;;;5120446;27;20092;-75
2021/03/27 14:23:58;;;;;;;24.10;4.53;;;;;;;;;;5127788;27;20031;-74
2021/03/27 14:26:27;;;;;;;20.00;3.35;;;;;;;;;;5128623;27;20157;-74
2021/03/27 14:29:04;;;;;;;17.67;3.03;;;;;;;;;;5129244;27;20055;-74
2021/03/27 14:31:39;;;;;;;18.13;3.47;;;;;;;;;;5120811;27;20051;-74
2021/03/27 14:34:05;;;;;;;24.67;3.50;;;;;;;;;;5124848;27;20054;-75
2021/03/27 14:36:39;;;;;;;19.23;2.85;;;;;;;;;;5121344;27;20468;-74
2021/03/27 14:39:17;;;;;;;19.85;3.63;;;;;;;;;;5135550;27;20055;-75
2021/03/27 14:41:44;;;;;;;18.60;3.30;;;;;;;;;;5134642;27;20039;-74
2021/03/27 14:44:28;;;;;;;17.80;2.92;;;;;;;;;;5140268;27;20138;-74
2021/03/27 14:47:13;;;;;;;16.35;3.22;;;;;;;;;;5144471;27;20042;-75
2021/03/27 14:49:51;;;;;;;14.68;3.90;;;;;;;;;;5131988;27;20050;-80
2021/03/27 14:52:20;;;;;;;18.65;3.45;;;;;;;;;;5152526;27;20046;-73
2021/03/27 14:55:05;;;;;;;12.50;3.00;;;;;;;;;;5148474;27;20059;-76
2021/03/27 14:57:50;;;;;;;15.70;3.00;;;;;;;;;;5150973;27;20044;-73
2021/03/27 15:00:22;;;;;;;12.65;2.92;;;;;;;;;;5132660;27;20130;-73
2021/03/27 15:03:08;;;;;;;24.83;4.35;;;;;;;;;;5141469;27;20046;-73
2021/03/27 15:05:36;;;;;;;19.45;3.38;;;;;;;;;;5117246;27;20486;-72
2021/03/27 15:08:11;;;;;;;17.55;3.70;;;;;;;;;;5138205;27;20069;-72
2021/03/27 15:10:40;;;;;;;16.23;3.13;;;;;;;;;;5117535;27;20047;-73
2021/03/27 15:13:25;;;;;;;15.52;3.50;;;;;;;;;;5131866;27;20043;-73
2021/03/27 15:16:00;;;;;;;16.65;3.55;;;;;;;;;;5136623;27;20478;-72
2021/03/27 15:18:33;;;;;;;16.63;3.17;;;;;;;;;;5145283;27;20587;-72
2021/03/27 15:21:00;;;;;;;17.38;2.92;;;;;;;;;;5139762;27;20055;-72
2021/03/27 15:23:45;;;;;;;13.98;2.53;;;;;;;;;;5142634;27;20039;-74